sensor_id;sensor_type;location;lat;lon;timestamp;P1;durP1;ratioP1;P2;durP2;ratioP2
12871;SDS011;6504;53.766;9.626;2022-08-21T00:02:25;6.57;;;3.90;;
12871;SDS011;6504;53.766;9.626;2022-08-21T00:04:54;5.13;;;4.00;;
12871;SDS011;6504;53.766;9.626;2022-08-21T00:07:23;4.40;;;3.80;;
12871;SDS011;6504;53.766;9.626;2022-08-21T00:09:54;6.90;;;4.10;;
12871;SDS011;6504;53.766;9.626;2022-08-21T00:12:24;5.03;;;4.10;;
12871;SDS011;6504;53.766;9.626;2022-08-21T00:14:55;5.03;;;4.20;;
12871;SDS011;6504;53.766;9.626;2022-08-21T00:17:25;4.03;;;3.73;;
12871;SDS011;6504;53.766;9.626;2022-08-21T00:19:56;5.20;;;4.00;;
12871;SDS011;6504;53.766;9.626;2022-08-21T00:22:25;4.10;;;3.60;;
12871;SDS011;6504;53.766;9.626;2022-08-21T00:24:53;3.97;;;3.40;;
12871;SDS011;6504;53.766;9.626;2022-08-21T00:27:21;4.03;;;2.80;;
12871;SDS011;6504;53.766;9.626;2022-08-21T00:29:51;4.83;;;3.10;;
12871;SDS011;6504;53.766;9.626;2022-08-21T00:32:20;3.57;;;3.27;;
12871;SDS011;6504;53.766;9.626;2022-08-21T00:34:52;3.93;;;3.10;;
12871;SDS011;6504;53.766;9.626;2022-08-21T00:37:21;2.73;;;2.50;;
12871;SDS011;6504;53.766;9.626;2022-08-21T00:39:49;2.87;;;2.60;;
12871;SDS011;6504;53.766;9.626;2022-08-21T00:42:17;3.13;;;2.83;;
12871;SDS011;6504;53.766;9.626;2022-08-21T00:44:47;3.60;;;3.30;;
12871;SDS011;6504;53.766;9.626;2022-08-21T00:47:20;3.40;;;3.10;;
12871;SDS011;6504;53.766;9.626;2022-08-21T00:49:51;4.10;;;3.57;;
12871;SDS011;6504;53.766;9.626;2022-08-21T00:52:22;4.20;;;3.80;;
12871;SDS011;6504;53.766;9.626;2022-08-21T00:54:54;4.77;;;4.00;;
12871;SDS011;6504;53.766;9.626;2022-08-21T00:57:26;5.00;;;4.10;;
12871;SDS011;6504;53.766;9.626;2022-08-21T01:00:02;3.90;;;3.57;;
12871;SDS011;6504;53.766;9.626;2022-08-21T01:02:35;4.00;;;3.23;;
12871;SDS011;6504;53.766;9.626;2022-08-21T01:05:04;4.97;;;4.00;;
12871;SDS011;6504;53.766;9.626;2022-08-21T01:07:34;4.53;;;4.13;;
12871;SDS011;6504;53.766;9.626;2022-08-21T01:10:05;5.77;;;4.07;;
12871;SDS011;6504;53.766;9.626;2022-08-21T01:12:46;4.10;;;3.70;;
12871;SDS011;6504;53.766;9.626;2022-08-21T01:15:15;4.07;;;3.60;;
12871;SDS011;6504;53.766;9.626;2022-08-21T01:17:48;5.07;;;3.70;;
12871;SDS011;6504;53.766;9.626;2022-08-21T01:20:17;5.03;;;4.20;;
12871;SDS011;6504;53.766;9.626;2022-08-21T01:22:47;4.47;;;3.70;;
12871;SDS011;6504;53.766;9.626;2022-08-21T01:25:16;4.67;;;3.90;;
12871;SDS011;6504;53.766;9.626;2022-08-21T01:27:45;4.73;;;3.70;;
12871;SDS011;6504;53.766;9.626;2022-08-21T01:30:18;4.80;;;3.80;;
12871;SDS011;6504;53.766;9.626;2022-08-21T01:32:47;3.70;;;3.33;;
12871;SDS011;6504;53.766;9.626;2022-08-21T01:35:17;4.20;;;3.80;;
12871;SDS011;6504;53.766;9.626;2022-08-21T01:37:50;3.67;;;3.33;;
12871;SDS011;6504;53.766;9.626;2022-08-21T01:40:18;3.60;;;3.30;;
12871;SDS011;6504;53.766;9.626;2022-08-21T01:42:48;3.63;;;3.33;;
12871;SDS011;6504;53.766;9.626;2022-08-21T01:45:16;3.43;;;3.10;;
12871;SDS011;6504;53.766;9.626;2022-08-21T01:47:44;3.90;;;3.40;;
12871;SDS011;6504;53.766;9.626;2022-08-21T01:50:17;3.33;;;3.03;;
12871;SDS011;6504;53.766;9.626;2022-08-21T01:52:46;5.90;;;3.10;;
12871;SDS011;6504;53.766;9.626;2022-08-21T01:55:19;3.63;;;3.17;;
12871;SDS011;6504;53.766;9.626;2022-08-21T01:57:48;3.47;;;3.17;;
12871;SDS011;6504;53.766;9.626;2022-08-21T02:00:21;4.67;;;3.57;;
12871;SDS011;6504;53.766;9.626;2022-08-21T02:02:50;3.83;;;3.53;;
12871;SDS011;6504;53.766;9.626;2022-08-21T02:05:19;3.87;;;3.13;;
12871;SDS011;6504;53.766;9.626;2022-08-21T02:07:53;3.43;;;2.90;;
12871;SDS011;6504;53.766;9.626;2022-08-21T02:10:24;3.47;;;2.83;;
12871;SDS011;6504;53.766;9.626;2022-08-21T02:12:55;2.80;;;2.60;;
12871;SDS011;6504;53.766;9.626;2022-08-21T02:15:25;3.00;;;2.70;;
12871;SDS011;6504;53.766;9.626;2022-08-21T02:17:54;3.40;;;3.00;;
12871;SDS011;6504;53.766;9.626;2022-08-21T02:20:28;2.70;;;2.50;;
12871;SDS011;6504;53.766;9.626;2022-08-21T02:22:58;2.77;;;2.57;;
12871;SDS011;6504;53.766;9.626;2022-08-21T02:25:31;2.87;;;2.53;;
12871;SDS011;6504;53.766;9.626;2022-08-21T02:28:01;2.90;;;2.53;;
12871;SDS011;6504;53.766;9.626;2022-08-21T02:30:36;3.10;;;2.57;;
12871;SDS011;6504;53.766;9.626;2022-08-21T02:33:13;3.27;;;2.70;;
12871;SDS011;6504;53.766;9.626;2022-08-21T02:35:42;5.07;;;3.10;;
12871;SDS011;6504;53.766;9.626;2022-08-21T02:38:12;3.57;;;3.13;;
12871;SDS011;6504;53.766;9.626;2022-08-21T02:40:45;3.10;;;2.80;;
12871;SDS011;6504;53.766;9.626;2022-08-21T02:43:19;3.43;;;3.13;;
12871;SDS011;6504;53.766;9.626;2022-08-21T02:45:49;3.47;;;3.10;;
12871;SDS011;6504;53.766;9.626;2022-08-21T02:48:22;3.43;;;3.13;;
12871;SDS011;6504;53.766;9.626;2022-08-21T02:50:53;3.37;;;3.07;;
12871;SDS011;6504;53.766;9.626;2022-08-21T02:53:25;3.90;;;2.60;;
12871;SDS011;6504;53.766;9.626;2022-08-21T02:55:59;3.20;;;2.90;;
12871;SDS011;6504;53.766;9.626;2022-08-21T02:58:30;3.37;;;3.10;;
12871;SDS011;6504;53.766;9.626;2022-08-21T03:01:03;3.40;;;3.10;;
12871;SDS011;6504;53.766;9.626;2022-08-21T03:03:36;3.33;;;3.03;;
12871;SDS011;6504;53.766;9.626;2022-08-21T03:06:09;3.10;;;2.80;;
12871;SDS011;6504;53.766;9.626;2022-08-21T03:08:41;2.87;;;2.67;;
12871;SDS011;6504;53.766;9.626;2022-08-21T03:11:12;2.43;;;2.23;;
12871;SDS011;6504;53.766;9.626;2022-08-21T03:13:41;2.40;;;2.20;;
12871;SDS011;6504;53.766;9.626;2022-08-21T03:16:10;2.70;;;2.40;;
12871;SDS011;6504;53.766;9.626;2022-08-21T03:18:38;3.17;;;2.87;;
12871;SDS011;6504;53.766;9.626;2022-08-21T03:21:09;2.90;;;2.60;;
12871;SDS011;6504;53.766;9.626;2022-08-21T03:23:39;2.73;;;2.53;;
12871;SDS011;6504;53.766;9.626;2022-08-21T03:26:12;3.30;;;3.00;;
12871;SDS011;6504;53.766;9.626;2022-08-21T03:28:41;3.13;;;2.90;;
12871;SDS011;6504;53.766;9.626;2022-08-21T03:31:09;2.70;;;2.50;;
12871;SDS011;6504;53.766;9.626;2022-08-21T03:33:37;4.17;;;2.87;;
12871;SDS011;6504;53.766;9.626;2022-08-21T03:36:08;2.70;;;2.50;;
12871;SDS011;6504;53.766;9.626;2022-08-21T03:38:37;3.10;;;2.47;;
12871;SDS011;6504;53.766;9.626;2022-08-21T03:41:08;5.13;;;2.90;;
12871;SDS011;6504;53.766;9.626;2022-08-21T03:43:38;3.40;;;3.10;;
12871;SDS011;6504;53.766;9.626;2022-08-21T03:46:09;3.10;;;2.80;;
12871;SDS011;6504;53.766;9.626;2022-08-21T03:48:38;3.77;;;3.00;;
12871;SDS011;6504;53.766;9.626;2022-08-21T03:51:06;3.20;;;2.90;;
12871;SDS011;6504;53.766;9.626;2022-08-21T03:53:37;3.40;;;3.10;;
12871;SDS011;6504;53.766;9.626;2022-08-21T03:56:06;3.20;;;2.90;;
12871;SDS011;6504;53.766;9.626;2022-08-21T03:58:38;4.10;;;2.90;;
12871;SDS011;6504;53.766;9.626;2022-08-21T04:01:07;4.50;;;3.33;;
12871;SDS011;6504;53.766;9.626;2022-08-21T04:03:36;3.67;;;3.30;;
12871;SDS011;6504;53.766;9.626;2022-08-21T04:06:09;3.80;;;3.30;;
12871;SDS011;6504;53.766;9.626;2022-08-21T04:08:37;3.27;;;2.80;;
12871;SDS011;6504;53.766;9.626;2022-08-21T04:11:11;4.00;;;3.20;;
12871;SDS011;6504;53.766;9.626;2022-08-21T04:13:42;4.63;;;3.60;;
12871;SDS011;6504;53.766;9.626;2022-08-21T04:16:11;4.13;;;2.93;;
12871;SDS011;6504;53.766;9.626;2022-08-21T04:18:40;3.50;;;3.10;;
12871;SDS011;6504;53.766;9.626;2022-08-21T04:21:08;6.73;;;3.13;;
12871;SDS011;6504;53.766;9.626;2022-08-21T04:23:39;3.40;;;3.07;;
12871;SDS011;6504;53.766;9.626;2022-08-21T04:26:07;3.10;;;2.80;;
12871;SDS011;6504;53.766;9.626;2022-08-21T04:28:35;3.20;;;2.90;;
12871;SDS011;6504;53.766;9.626;2022-08-21T04:31:07;4.23;;;2.90;;
12871;SDS011;6504;53.766;9.626;2022-08-21T04:33:36;3.50;;;3.20;;
12871;SDS011;6504;53.766;9.626;2022-08-21T04:36:04;4.77;;;3.30;;
12871;SDS011;6504;53.766;9.626;2022-08-21T04:38:38;3.80;;;3.30;;
12871;SDS011;6504;53.766;9.626;2022-08-21T04:41:09;3.60;;;3.30;;
12871;SDS011;6504;53.766;9.626;2022-08-21T04:43:39;3.53;;;3.23;;
12871;SDS011;6504;53.766;9.626;2022-08-21T04:46:08;4.03;;;3.70;;
12871;SDS011;6504;53.766;9.626;2022-08-21T04:48:39;3.63;;;3.20;;
12871;SDS011;6504;53.766;9.626;2022-08-21T04:51:09;5.17;;;3.10;;
12871;SDS011;6504;53.766;9.626;2022-08-21T04:53:49;3.47;;;3.03;;
12871;SDS011;6504;53.766;9.626;2022-08-21T04:56:20;3.77;;;3.43;;
12871;SDS011;6504;53.766;9.626;2022-08-21T04:58:51;4.80;;;3.00;;
12871;SDS011;6504;53.766;9.626;2022-08-21T05:01:27;3.43;;;3.13;;
12871;SDS011;6504;53.766;9.626;2022-08-21T05:03:58;4.20;;;2.90;;
12871;SDS011;6504;53.766;9.626;2022-08-21T05:06:28;4.03;;;3.10;;
12871;SDS011;6504;53.766;9.626;2022-08-21T05:09:00;3.77;;;3.33;;
12871;SDS011;6504;53.766;9.626;2022-08-21T05:11:29;3.43;;;3.13;;
12871;SDS011;6504;53.766;9.626;2022-08-21T05:13:58;4.30;;;3.00;;
12871;SDS011;6504;53.766;9.626;2022-08-21T05:16:30;3.53;;;3.20;;
12871;SDS011;6504;53.766;9.626;2022-08-21T05:19:03;4.10;;;3.20;;
12871;SDS011;6504;53.766;9.626;2022-08-21T05:21:41;4.10;;;3.33;;
12871;SDS011;6504;53.766;9.626;2022-08-21T05:24:12;5.37;;;3.50;;
12871;SDS011;6504;53.766;9.626;2022-08-21T05:26:40;3.97;;;3.20;;
12871;SDS011;6504;53.766;9.626;2022-08-21T05:29:12;3.87;;;3.50;;
12871;SDS011;6504;53.766;9.626;2022-08-21T05:31:43;4.97;;;3.63;;
12871;SDS011;6504;53.766;9.626;2022-08-21T05:34:11;3.83;;;3.10;;
12871;SDS011;6504;53.766;9.626;2022-08-21T05:36:42;3.30;;;3.00;;
12871;SDS011;6504;53.766;9.626;2022-08-21T05:39:10;3.63;;;3.30;;
12871;SDS011;6504;53.766;9.626;2022-08-21T05:41:39;3.23;;;2.93;;
12871;SDS011;6504;53.766;9.626;2022-08-21T05:44:07;3.43;;;3.13;;
12871;SDS011;6504;53.766;9.626;2022-08-21T05:46:36;4.23;;;2.90;;
12871;SDS011;6504;53.766;9.626;2022-08-21T05:49:06;5.13;;;3.63;;
12871;SDS011;6504;53.766;9.626;2022-08-21T05:51:34;4.13;;;3.47;;
12871;SDS011;6504;53.766;9.626;2022-08-21T05:54:06;4.33;;;3.30;;
12871;SDS011;6504;53.766;9.626;2022-08-21T05:56:35;3.50;;;3.20;;
12871;SDS011;6504;53.766;9.626;2022-08-21T05:59:03;4.63;;;3.47;;
12871;SDS011;6504;53.766;9.626;2022-08-21T06:01:34;4.77;;;3.03;;
12871;SDS011;6504;53.766;9.626;2022-08-21T06:04:02;4.70;;;3.00;;
12871;SDS011;6504;53.766;9.626;2022-08-21T06:06:40;4.97;;;3.23;;
12871;SDS011;6504;53.766;9.626;2022-08-21T06:09:08;3.33;;;3.03;;
12871;SDS011;6504;53.766;9.626;2022-08-21T06:11:36;4.17;;;3.00;;
12871;SDS011;6504;53.766;9.626;2022-08-21T06:14:04;4.57;;;3.30;;
12871;SDS011;6504;53.766;9.626;2022-08-21T06:16:33;4.53;;;3.20;;
12871;SDS011;6504;53.766;9.626;2022-08-21T06:19:05;3.90;;;2.80;;
12871;SDS011;6504;53.766;9.626;2022-08-21T06:21:33;5.93;;;3.27;;
12871;SDS011;6504;53.766;9.626;2022-08-21T06:24:08;3.97;;;3.10;;
12871;SDS011;6504;53.766;9.626;2022-08-21T06:26:37;5.47;;;3.27;;
12871;SDS011;6504;53.766;9.626;2022-08-21T06:29:08;5.80;;;3.40;;
12871;SDS011;6504;53.766;9.626;2022-08-21T06:31:38;3.80;;;3.03;;
12871;SDS011;6504;53.766;9.626;2022-08-21T06:34:09;3.90;;;2.50;;
12871;SDS011;6504;53.766;9.626;2022-08-21T06:36:38;4.97;;;2.77;;
12871;SDS011;6504;53.766;9.626;2022-08-21T06:39:09;3.50;;;2.37;;
12871;SDS011;6504;53.766;9.626;2022-08-21T06:41:57;4.13;;;3.17;;
12871;SDS011;6504;53.766;9.626;2022-08-21T06:44:26;3.90;;;3.20;;
12871;SDS011;6504;53.766;9.626;2022-08-21T06:46:54;4.67;;;3.10;;
12871;SDS011;6504;53.766;9.626;2022-08-21T06:49:23;4.00;;;2.70;;
12871;SDS011;6504;53.766;9.626;2022-08-21T06:51:54;5.80;;;3.30;;
12871;SDS011;6504;53.766;9.626;2022-08-21T06:54:23;3.40;;;2.47;;
12871;SDS011;6504;53.766;9.626;2022-08-21T06:56:54;4.63;;;2.70;;
12871;SDS011;6504;53.766;9.626;2022-08-21T06:59:22;3.87;;;2.57;;
12871;SDS011;6504;53.766;9.626;2022-08-21T07:01:50;4.60;;;3.20;;
12871;SDS011;6504;53.766;9.626;2022-08-21T07:04:25;4.00;;;3.00;;
12871;SDS011;6504;53.766;9.626;2022-08-21T07:06:53;4.43;;;3.00;;
12871;SDS011;6504;53.766;9.626;2022-08-21T07:09:23;7.13;;;3.30;;
12871;SDS011;6504;53.766;9.626;2022-08-21T07:11:53;4.73;;;3.23;;
12871;SDS011;6504;53.766;9.626;2022-08-21T07:14:25;3.73;;;2.80;;
12871;SDS011;6504;53.766;9.626;2022-08-21T07:16:55;5.40;;;2.77;;
12871;SDS011;6504;53.766;9.626;2022-08-21T07:19:24;4.20;;;2.50;;
12871;SDS011;6504;53.766;9.626;2022-08-21T07:21:52;4.53;;;2.77;;
12871;SDS011;6504;53.766;9.626;2022-08-21T07:24:27;3.10;;;2.50;;
12871;SDS011;6504;53.766;9.626;2022-08-21T07:26:55;4.47;;;2.90;;
12871;SDS011;6504;53.766;9.626;2022-08-21T07:29:23;6.10;;;2.70;;
12871;SDS011;6504;53.766;9.626;2022-08-21T07:31:52;5.53;;;2.87;;
12871;SDS011;6504;53.766;9.626;2022-08-21T07:34:23;4.17;;;2.77;;
12871;SDS011;6504;53.766;9.626;2022-08-21T07:36:51;6.73;;;3.03;;
12871;SDS011;6504;53.766;9.626;2022-08-21T07:39:19;4.47;;;2.87;;
12871;SDS011;6504;53.766;9.626;2022-08-21T07:41:56;5.20;;;2.77;;
12871;SDS011;6504;53.766;9.626;2022-08-21T07:44:24;4.53;;;2.67;;
12871;SDS011;6504;53.766;9.626;2022-08-21T07:46:54;3.70;;;2.50;;
12871;SDS011;6504;53.766;9.626;2022-08-21T07:49:23;5.47;;;2.87;;
12871;SDS011;6504;53.766;9.626;2022-08-21T07:51:51;3.53;;;2.30;;
12871;SDS011;6504;53.766;9.626;2022-08-21T07:54:19;3.67;;;2.40;;
12871;SDS011;6504;53.766;9.626;2022-08-21T07:57:00;6.00;;;3.03;;
12871;SDS011;6504;53.766;9.626;2022-08-21T07:59:28;4.53;;;2.87;;
12871;SDS011;6504;53.766;9.626;2022-08-21T08:01:59;6.17;;;2.80;;
12871;SDS011;6504;53.766;9.626;2022-08-21T08:04:27;5.90;;;2.83;;
12871;SDS011;6504;53.766;9.626;2022-08-21T08:06:55;4.83;;;2.93;;
12871;SDS011;6504;53.766;9.626;2022-08-21T08:09:23;4.00;;;2.73;;
12871;SDS011;6504;53.766;9.626;2022-08-21T08:11:51;7.70;;;2.97;;
12871;SDS011;6504;53.766;9.626;2022-08-21T08:14:21;5.87;;;2.90;;
12871;SDS011;6504;53.766;9.626;2022-08-21T08:16:56;4.73;;;3.00;;
12871;SDS011;6504;53.766;9.626;2022-08-21T08:19:26;8.97;;;2.93;;
12871;SDS011;6504;53.766;9.626;2022-08-21T08:21:55;9.03;;;3.37;;
12871;SDS011;6504;53.766;9.626;2022-08-21T08:24:26;5.83;;;3.03;;
12871;SDS011;6504;53.766;9.626;2022-08-21T08:26:54;5.97;;;2.90;;
12871;SDS011;6504;53.766;9.626;2022-08-21T08:29:27;5.93;;;2.77;;
12871;SDS011;6504;53.766;9.626;2022-08-21T08:31:57;6.30;;;2.73;;
12871;SDS011;6504;53.766;9.626;2022-08-21T08:34:28;5.63;;;2.60;;
12871;SDS011;6504;53.766;9.626;2022-08-21T08:36:56;5.80;;;3.00;;
12871;SDS011;6504;53.766;9.626;2022-08-21T08:39:25;6.70;;;2.93;;
12871;SDS011;6504;53.766;9.626;2022-08-21T08:42:03;4.50;;;2.90;;
12871;SDS011;6504;53.766;9.626;2022-08-21T08:45:02;5.07;;;2.97;;
12871;SDS011;6504;53.766;9.626;2022-08-21T08:47:34;5.87;;;2.73;;
12871;SDS011;6504;53.766;9.626;2022-08-21T08:50:12;5.83;;;2.97;;
12871;SDS011;6504;53.766;9.626;2022-08-21T08:52:48;5.90;;;3.03;;
12871;SDS011;6504;53.766;9.626;2022-08-21T08:55:26;6.37;;;3.10;;
12871;SDS011;6504;53.766;9.626;2022-08-21T08:57:59;6.23;;;2.80;;
12871;SDS011;6504;53.766;9.626;2022-08-21T09:00:31;7.13;;;2.83;;
12871;SDS011;6504;53.766;9.626;2022-08-21T09:03:03;4.90;;;2.50;;
12871;SDS011;6504;53.766;9.626;2022-08-21T09:05:45;5.10;;;3.10;;
12871;SDS011;6504;53.766;9.626;2022-08-21T09:08:26;5.03;;;2.53;;
12871;SDS011;6504;53.766;9.626;2022-08-21T09:11:04;6.13;;;2.70;;
12871;SDS011;6504;53.766;9.626;2022-08-21T09:13:44;5.47;;;2.80;;
12871;SDS011;6504;53.766;9.626;2022-08-21T09:16:26;7.50;;;2.87;;
12871;SDS011;6504;53.766;9.626;2022-08-21T09:19:08;5.30;;;2.60;;
12871;SDS011;6504;53.766;9.626;2022-08-21T09:21:53;4.40;;;2.40;;
12871;SDS011;6504;53.766;9.626;2022-08-21T09:24:31;6.10;;;3.00;;
12871;SDS011;6504;53.766;9.626;2022-08-21T09:27:08;5.60;;;2.93;;
12871;SDS011;6504;53.766;9.626;2022-08-21T09:29:39;6.63;;;2.70;;
12871;SDS011;6504;53.766;9.626;2022-08-21T09:32:12;7.47;;;2.80;;
12871;SDS011;6504;53.766;9.626;2022-08-21T09:34:54;5.00;;;2.40;;
12871;SDS011;6504;53.766;9.626;2022-08-21T09:37:24;7.30;;;2.90;;
12871;SDS011;6504;53.766;9.626;2022-08-21T09:39:55;6.33;;;2.53;;
12871;SDS011;6504;53.766;9.626;2022-08-21T09:42:25;6.93;;;3.00;;
12871;SDS011;6504;53.766;9.626;2022-08-21T09:45:06;5.37;;;2.70;;
12871;SDS011;6504;53.766;9.626;2022-08-21T09:47:40;6.77;;;2.90;;
12871;SDS011;6504;53.766;9.626;2022-08-21T09:50:11;4.80;;;2.50;;
12871;SDS011;6504;53.766;9.626;2022-08-21T09:52:49;4.33;;;2.30;;
12871;SDS011;6504;53.766;9.626;2022-08-21T09:55:21;6.33;;;2.60;;
12871;SDS011;6504;53.766;9.626;2022-08-21T09:58:13;5.73;;;2.47;;
12871;SDS011;6504;53.766;9.626;2022-08-21T10:00:42;5.33;;;2.37;;
12871;SDS011;6504;53.766;9.626;2022-08-21T10:03:17;4.10;;;2.13;;
12871;SDS011;6504;53.766;9.626;2022-08-21T10:05:55;4.00;;;2.40;;
12871;SDS011;6504;53.766;9.626;2022-08-21T10:08:25;4.93;;;2.00;;
12871;SDS011;6504;53.766;9.626;2022-08-21T10:11:01;6.43;;;2.37;;
12871;SDS011;6504;53.766;9.626;2022-08-21T10:13:40;3.67;;;1.97;;
12871;SDS011;6504;53.766;9.626;2022-08-21T10:16:25;5.43;;;2.10;;
12871;SDS011;6504;53.766;9.626;2022-08-21T10:19:07;4.63;;;2.30;;
12871;SDS011;6504;53.766;9.626;2022-08-21T10:21:53;4.13;;;1.87;;
12871;SDS011;6504;53.766;9.626;2022-08-21T10:24:32;4.47;;;1.80;;
12871;SDS011;6504;53.766;9.626;2022-08-21T10:27:08;5.33;;;2.00;;
12871;SDS011;6504;53.766;9.626;2022-08-21T10:29:47;4.23;;;1.77;;
12871;SDS011;6504;53.766;9.626;2022-08-21T10:32:24;3.93;;;2.00;;
12871;SDS011;6504;53.766;9.626;2022-08-21T10:35:06;4.50;;;2.17;;
12871;SDS011;6504;53.766;9.626;2022-08-21T10:37:42;2.60;;;1.80;;
12871;SDS011;6504;53.766;9.626;2022-08-21T10:40:29;3.80;;;1.80;;
12871;SDS011;6504;53.766;9.626;2022-08-21T10:43:10;2.10;;;1.90;;
12871;SDS011;6504;53.766;9.626;2022-08-21T10:45:51;3.10;;;1.90;;
12871;SDS011;6504;53.766;9.626;2022-08-21T10:48:25;4.00;;;2.10;;
12871;SDS011;6504;53.766;9.626;2022-08-21T10:51:03;5.10;;;2.00;;
12871;SDS011;6504;53.766;9.626;2022-08-21T10:53:47;4.13;;;1.93;;
12871;SDS011;6504;53.766;9.626;2022-08-21T10:56:22;3.57;;;1.87;;
12871;SDS011;6504;53.766;9.626;2022-08-21T10:59:07;3.83;;;1.57;;
12871;SDS011;6504;53.766;9.626;2022-08-21T11:01:51;3.03;;;1.67;;
12871;SDS011;6504;53.766;9.626;2022-08-21T11:04:25;4.00;;;1.50;;
12871;SDS011;6504;53.766;9.626;2022-08-21T11:07:18;2.50;;;1.50;;
12871;SDS011;6504;53.766;9.626;2022-08-21T11:10:01;3.33;;;1.50;;
12871;SDS011;6504;53.766;9.626;2022-08-21T11:12:39;5.00;;;1.93;;
12871;SDS011;6504;53.766;9.626;2022-08-21T11:15:23;3.20;;;1.80;;
12871;SDS011;6504;53.766;9.626;2022-08-21T11:18:02;3.13;;;1.87;;
12871;SDS011;6504;53.766;9.626;2022-08-21T11:20:42;3.67;;;2.00;;
12871;SDS011;6504;53.766;9.626;2022-08-21T11:23:21;3.97;;;1.70;;
12871;SDS011;6504;53.766;9.626;2022-08-21T11:25:53;3.27;;;1.60;;
12871;SDS011;6504;53.766;9.626;2022-08-21T11:28:28;3.27;;;1.83;;
12871;SDS011;6504;53.766;9.626;2022-08-21T11:31:06;3.50;;;1.60;;
12871;SDS011;6504;53.766;9.626;2022-08-21T11:33:47;3.73;;;1.87;;
12871;SDS011;6504;53.766;9.626;2022-08-21T11:36:26;3.20;;;1.53;;
12871;SDS011;6504;53.766;9.626;2022-08-21T11:39:02;3.30;;;1.47;;
12871;SDS011;6504;53.766;9.626;2022-08-21T11:41:43;3.00;;;1.50;;
12871;SDS011;6504;53.766;9.626;2022-08-21T11:44:21;1.93;;;1.33;;
12871;SDS011;6504;53.766;9.626;2022-08-21T11:46:59;2.07;;;1.27;;
12871;SDS011;6504;53.766;9.626;2022-08-21T11:49:35;2.70;;;1.40;;
12871;SDS011;6504;53.766;9.626;2022-08-21T11:52:18;2.80;;;1.30;;
12871;SDS011;6504;53.766;9.626;2022-08-21T11:54:52;2.83;;;1.33;;
12871;SDS011;6504;53.766;9.626;2022-08-21T11:57:29;3.63;;;1.43;;
12871;SDS011;6504;53.766;9.626;2022-08-21T12:00:03;2.43;;;1.30;;
12871;SDS011;6504;53.766;9.626;2022-08-21T12:02:42;2.37;;;1.30;;
12871;SDS011;6504;53.766;9.626;2022-08-21T12:05:27;2.50;;;1.40;;
12871;SDS011;6504;53.766;9.626;2022-08-21T12:08:03;2.97;;;1.40;;
12871;SDS011;6504;53.766;9.626;2022-08-21T12:10:41;3.10;;;1.30;;
12871;SDS011;6504;53.766;9.626;2022-08-21T12:13:23;2.07;;;1.20;;
12871;SDS011;6504;53.766;9.626;2022-08-21T12:16:08;2.27;;;1.30;;
12871;SDS011;6504;53.766;9.626;2022-08-21T12:18:42;2.03;;;1.43;;
12871;SDS011;6504;53.766;9.626;2022-08-21T12:21:19;2.60;;;1.50;;
12871;SDS011;6504;53.766;9.626;2022-08-21T12:24:05;2.37;;;1.27;;
12871;SDS011;6504;53.766;9.626;2022-08-21T12:26:54;2.80;;;1.50;;
12871;SDS011;6504;53.766;9.626;2022-08-21T12:29:25;2.30;;;1.57;;
12871;SDS011;6504;53.766;9.626;2022-08-21T12:31:59;3.47;;;1.30;;
12871;SDS011;6504;53.766;9.626;2022-08-21T12:34:33;3.83;;;1.37;;
12871;SDS011;6504;53.766;9.626;2022-08-21T12:37:04;3.53;;;1.50;;
12871;SDS011;6504;53.766;9.626;2022-08-21T12:39:43;3.23;;;1.47;;
12871;SDS011;6504;53.766;9.626;2022-08-21T12:42:16;2.50;;;1.30;;
12871;SDS011;6504;53.766;9.626;2022-08-21T12:44:53;1.97;;;1.30;;
12871;SDS011;6504;53.766;9.626;2022-08-21T12:47:25;1.80;;;1.20;;
12871;SDS011;6504;53.766;9.626;2022-08-21T12:49:59;3.10;;;1.67;;
12871;SDS011;6504;53.766;9.626;2022-08-21T12:52:38;4.00;;;1.40;;
12871;SDS011;6504;53.766;9.626;2022-08-21T12:55:13;1.67;;;1.20;;
12871;SDS011;6504;53.766;9.626;2022-08-21T12:57:44;1.80;;;1.30;;
12871;SDS011;6504;53.766;9.626;2022-08-21T13:00:13;4.17;;;1.73;;
12871;SDS011;6504;53.766;9.626;2022-08-21T13:02:48;2.43;;;1.30;;
12871;SDS011;6504;53.766;9.626;2022-08-21T13:05:24;2.90;;;1.47;;
12871;SDS011;6504;53.766;9.626;2022-08-21T13:07:57;3.53;;;1.40;;
12871;SDS011;6504;53.766;9.626;2022-08-21T13:10:27;2.73;;;1.33;;
12871;SDS011;6504;53.766;9.626;2022-08-21T13:13:03;2.60;;;1.20;;
12871;SDS011;6504;53.766;9.626;2022-08-21T13:15:39;2.57;;;1.30;;
12871;SDS011;6504;53.766;9.626;2022-08-21T13:18:19;3.33;;;1.23;;
12871;SDS011;6504;53.766;9.626;2022-08-21T13:21:01;2.47;;;1.13;;
12871;SDS011;6504;53.766;9.626;2022-08-21T13:23:38;3.90;;;1.47;;
12871;SDS011;6504;53.766;9.626;2022-08-21T13:26:13;3.07;;;1.40;;
12871;SDS011;6504;53.766;9.626;2022-08-21T13:28:46;1.40;;;1.17;;
12871;SDS011;6504;53.766;9.626;2022-08-21T13:31:20;2.23;;;1.10;;
12871;SDS011;6504;53.766;9.626;2022-08-21T13:33:58;1.27;;;1.10;;
12871;SDS011;6504;53.766;9.626;2022-08-21T13:36:28;1.63;;;1.03;;
12871;SDS011;6504;53.766;9.626;2022-08-21T13:39:02;2.90;;;1.33;;
12871;SDS011;6504;53.766;9.626;2022-08-21T13:41:35;2.10;;;1.30;;
12871;SDS011;6504;53.766;9.626;2022-08-21T13:44:13;2.80;;;1.07;;
12871;SDS011;6504;53.766;9.626;2022-08-21T13:46:46;2.37;;;1.30;;
12871;SDS011;6504;53.766;9.626;2022-08-21T13:49:16;2.97;;;1.27;;
12871;SDS011;6504;53.766;9.626;2022-08-21T13:51:46;1.87;;;1.10;;
12871;SDS011;6504;53.766;9.626;2022-08-21T13:54:21;2.67;;;1.20;;
12871;SDS011;6504;53.766;9.626;2022-08-21T13:56:54;1.70;;;1.30;;
12871;SDS011;6504;53.766;9.626;2022-08-21T13:59:25;2.73;;;1.17;;
12871;SDS011;6504;53.766;9.626;2022-08-21T14:01:58;2.50;;;1.27;;
12871;SDS011;6504;53.766;9.626;2022-08-21T14:04:33;2.87;;;1.20;;
12871;SDS011;6504;53.766;9.626;2022-08-21T14:07:13;2.33;;;1.00;;
12871;SDS011;6504;53.766;9.626;2022-08-21T14:09:44;2.00;;;1.20;;
12871;SDS011;6504;53.766;9.626;2022-08-21T14:12:14;2.90;;;1.57;;
12871;SDS011;6504;53.766;9.626;2022-08-21T14:14:50;2.80;;;1.33;;
12871;SDS011;6504;53.766;9.626;2022-08-21T14:17:27;3.23;;;1.50;;
12871;SDS011;6504;53.766;9.626;2022-08-21T14:19:59;4.93;;;1.63;;
12871;SDS011;6504;53.766;9.626;2022-08-21T14:22:31;3.67;;;1.43;;
12871;SDS011;6504;53.766;9.626;2022-08-21T14:25:11;2.67;;;1.30;;
12871;SDS011;6504;53.766;9.626;2022-08-21T14:27:43;4.33;;;1.40;;
12871;SDS011;6504;53.766;9.626;2022-08-21T14:30:28;3.93;;;1.40;;
12871;SDS011;6504;53.766;9.626;2022-08-21T14:33:02;3.13;;;1.73;;
12871;SDS011;6504;53.766;9.626;2022-08-21T14:35:31;3.33;;;1.53;;
12871;SDS011;6504;53.766;9.626;2022-08-21T14:38:10;3.57;;;1.30;;
12871;SDS011;6504;53.766;9.626;2022-08-21T14:40:41;2.83;;;1.30;;
12871;SDS011;6504;53.766;9.626;2022-08-21T14:43:12;4.03;;;1.57;;
12871;SDS011;6504;53.766;9.626;2022-08-21T14:45:41;3.87;;;1.73;;
12871;SDS011;6504;53.766;9.626;2022-08-21T14:48:10;2.20;;;1.20;;
12871;SDS011;6504;53.766;9.626;2022-08-21T14:50:38;2.17;;;1.23;;
12871;SDS011;6504;53.766;9.626;2022-08-21T14:53:09;2.70;;;1.47;;
12871;SDS011;6504;53.766;9.626;2022-08-21T14:55:38;3.53;;;1.50;;
12871;SDS011;6504;53.766;9.626;2022-08-21T14:58:24;3.77;;;1.40;;
12871;SDS011;6504;53.766;9.626;2022-08-21T15:00:57;2.67;;;1.30;;
12871;SDS011;6504;53.766;9.626;2022-08-21T15:03:29;2.00;;;1.30;;
12871;SDS011;6504;53.766;9.626;2022-08-21T15:05:58;3.50;;;1.60;;
12871;SDS011;6504;53.766;9.626;2022-08-21T15:08:30;2.47;;;1.20;;
12871;SDS011;6504;53.766;9.626;2022-08-21T15:10:59;3.80;;;1.40;;
12871;SDS011;6504;53.766;9.626;2022-08-21T15:13:39;2.57;;;1.30;;
12871;SDS011;6504;53.766;9.626;2022-08-21T15:16:09;2.70;;;1.27;;
12871;SDS011;6504;53.766;9.626;2022-08-21T15:18:41;2.73;;;1.20;;
12871;SDS011;6504;53.766;9.626;2022-08-21T15:21:09;3.50;;;1.40;;
12871;SDS011;6504;53.766;9.626;2022-08-21T15:23:38;2.37;;;1.40;;
12871;SDS011;6504;53.766;9.626;2022-08-21T15:26:09;2.27;;;1.50;;
12871;SDS011;6504;53.766;9.626;2022-08-21T15:28:38;2.37;;;1.20;;
12871;SDS011;6504;53.766;9.626;2022-08-21T15:31:14;3.00;;;1.40;;
12871;SDS011;6504;53.766;9.626;2022-08-21T15:33:46;5.07;;;1.63;;
12871;SDS011;6504;53.766;9.626;2022-08-21T15:36:14;3.37;;;1.30;;